METAR Data
IDs: Format: Raw Decoded Include TAF

Data at: 1522 UTC 21 Sep 2018

KRRT 211515Z AUTO 28010KT 10SM CLR 07/05 A3007 RMK AO2
KRRT 211456Z AUTO 29008G14KT 10SM CLR 07/05 A3006 RMK AO2
KRRT 211455Z AUTO 30007G14KT 10SM CLR 07/05 A3006 RMK AO2
KRRT 211435Z AUTO 30008KT 10SM CLR 07/04 A3005 RMK AO2
KRRT 211415Z AUTO 29009KT 10SM CLR 06/03 A3005 RMK AO2
KRRT 211356Z AUTO 29007G14KT 10SM CLR 06/03 A3004 RMK AO2
KRRT 211355Z AUTO 29008G14KT 10SM CLR 06/03 A3004 RMK AO2
KRRT 211335Z AUTO 29007KT 10SM CLR 06/03 A3003 RMK AO2
KRRT 211315Z AUTO 30006KT 10SM CLR 05/03 A3001 RMK AO2
KRRT 211255Z AUTO 30007KT 10SM SCT009 SCT070 05/03 A3001 RMK AO2
KRRT 211235Z AUTO 31009KT 10SM SCT009 BKN060 BKN070 04/03 A3000 RMK AO2
KRRT 211215Z AUTO 31010KT 10SM OVC060 04/03 A2998 RMK AO2
KRRT 211155Z AUTO 32009G15KT 10SM BKN060 OVC070 04/03 A2996 RMK AO2
KRRT 211135Z AUTO 33009G17KT 10SM -DZ SCT023 SCT070 05/03 A2994 RMK AO2
KRRT 211115Z AUTO 33011G18KT 10SM DZ SCT016 SCT023 BKN030 05/03 A2993 RMK AO2
KRRT 211055Z AUTO 33011G17KT 10SM DZ SCT016 BKN021 OVC032 05/03 A2991 RMK AO2 P0001
KRRT 211035Z AUTO 33011G17KT 10SM RA BKN018 OVC024 05/03 A2990 RMK AO2
KRRT 211016Z AUTO 33011G18KT 10SM DZ BKN019 OVC025 05/03 A2988 RMK AO2
KRRT 211015Z AUTO 33011G18KT 10SM DZ BKN019 OVC025 05/03 A2988 RMK AO2
KRRT 210955Z AUTO 33013G21KT 10SM -RA OVC021 05/03 A2987 RMK AO2
KRRT 210935Z AUTO 34016G20KT 10SM -RA OVC020 05/03 A2985 RMK AO2
KRRT 210916Z AUTO 33013G21KT 10SM -DZ OVC018 06/03 A2984 RMK AO2
KRRT 210855Z AUTO 33014G22KT 10SM -RA BKN015 BKN021 OVC035 06/03 A2983 RMK AO2 P0001
KRRT 210835Z AUTO 34016G24KT 10SM RA SCT015 BKN030 OVC035 06/03 A2982 RMK AO2 LTG DSNT SW P0001
KRRT 210815Z AUTO 33014G24KT 10SM RA SCT015 OVC035 06/03 A2981 RMK AO2 P0001
KRRT 210755Z AUTO 34018G24KT 5SM RA BKN015 BKN020 OVC035 06/04 A2979 RMK AO2 P0001
KRRT 210735Z AUTO 33017G24KT 7SM RA BKN013 BKN018 OVC025 06/04 A2978 RMK AO2 P0001 P0001
KRRT 210715Z AUTO 33014G25KT 7SM RA SCT011 BKN017 OVC022 07/04 A2978 RMK AO2 P0001
KRRT 210655Z AUTO 33012G21KT 10SM RA BKN013 BKN019 OVC036 07/04 A2978 RMK AO2 P0001
KRRT 210636Z AUTO 33009G23KT 10SM RA BKN011 OVC016 07/04 A2977 RMK AO2 P0001
KRRT 210635Z AUTO 33010G23KT 10SM RA BKN011 BKN016 OVC042 07/04 A2977 RMK AO2 P0001 P0001
KRRT 210615Z AUTO 33010G24KT 7SM -RA OVC012 07/04 A2977 RMK AO2 LTG DSNT S P0001
KRRT 210555Z AUTO 34019G26KT 10SM RA BKN012 OVC018 07/04 A2976 RMK AO2 P0001
KRRT 210536Z AUTO 33016G24KT 10SM RA BKN012 BKN032 OVC049 07/05 A2976 RMK AO2 P0001
KRRT 210535Z AUTO 34015G24KT 10SM RA SCT012 BKN032 OVC049 07/05 A2976 RMK AO2 P0001
KRRT 210515Z AUTO 34018G27KT 10SM -RA SCT010 SCT014 OVC046 07/05 A2976 RMK AO2 P0001
KRRT 210455Z AUTO 34018G25KT 10SM -RA SCT010 BKN027 OVC044 08/06 A2976 RMK AO2 P0001
KRRT 210436Z AUTO 34016G24KT 10SM RA SCT010 BKN024 OVC030 08/06 A2976 RMK AO2 P0001
KRRT 210415Z AUTO 34017G22KT 10SM RA OVC010 09/07 A2976 RMK AO2 P0001 P0001
KRRT 210355Z AUTO 34015G20KT 10SM -RA BKN010 OVC016 09/08 A2976 RMK AO2 P0001
KRRT 210335Z AUTO 36013G20KT 10SM -RA SCT008 OVC014 10/08 A2976 RMK AO2 P0001
KRRT 210315Z AUTO 01011G21KT 10SM RA SCT010 OVC016 11/08 A2976 RMK AO2 P0001
KRRT 210255Z AUTO 02014G20KT 7SM RA BKN012 OVC017 11/08 A2977 RMK AO2 P0001
KRRT 210235Z AUTO 01014G20KT 10SM RA BKN012 OVC018 11/08 A2977 RMK AO2 P0001 P0001
KRRT 210215Z AUTO 02011G21KT 10SM RA BKN013 OVC018 11/09 A2977 RMK AO2 P0001
KRRT 210155Z AUTO 02013G19KT 10SM RA BKN013 OVC019 11/09 A2978 RMK AO2 P0001
KRRT 210135Z AUTO 03014G22KT 10SM -RA SCT013 BKN019 OVC025 12/09 A2977 RMK AO2 P0001
KRRT 210115Z AUTO 04019G26KT 10SM RA BKN017 OVC022 12/09 A2977 RMK AO2 P0001
KRRT 210055Z AUTO 04016G22KT 10SM RA SCT014 BKN021 OVC026 12/09 A2979 RMK AO2 P0001
KRRT 210035Z AUTO 04016G24KT 10SM RA BKN017 BKN021 OVC028 12/09 A2981 RMK AO2 P0001
KRRT 210015Z AUTO 05014G23KT 10SM RA SCT015 BKN019 BKN027 12/09 A2982 RMK AO2 P0001 P0001
KRRT 202355Z AUTO 04016G24KT 10SM -RA SCT015 SCT021 BKN027 12/09 A2982 RMK AO2 P0001
KRRT 202335Z AUTO 05013G21KT 10SM -RA SCT015 BKN023 OVC031 12/10 A2984 RMK AO2 P0001
KRRT 202315Z AUTO 06016G22KT 10SM RA SCT017 BKN026 OVC032 12/10 A2986 RMK AO2 P0001 P0001
KRRT 202255Z AUTO 05016G22KT 10SM -RA SCT019 OVC028 12/10 A2986 RMK AO2 P0001
KRRT 202235Z AUTO 05014G21KT 7SM RA BKN023 OVC030 13/11 A2988 RMK AO2 P0001
KRRT 202215Z AUTO 04013G19KT 10SM SCT018 OVC025 13/11 A2989 RMK AO2
KRRT 202155Z AUTO 05012G16KT 10SM -DZ BKN020 OVC026 13/11 A2991 RMK AO2
KRRT 202135Z AUTO 07010G17KT 10SM OVC020 13/11 A2993 RMK AO2
KRRT 202115Z AUTO 07011KT 10SM OVC022 13/11 A2993 RMK AO2
KRRT 202055Z AUTO 07014G19KT 10SM OVC023 13/11 A2994 RMK AO2
KRRT 202035Z AUTO 07015G20KT 10SM OVC022 13/11 A2993 RMK AO2
KRRT 202015Z AUTO 06014G20KT 10SM OVC022 14/11 A2994 RMK AO2
KRRT 201955Z AUTO 06014G17KT 10SM SCT015 OVC022 13/11 A2995 RMK AO2
KRRT 201935Z AUTO 05010KT 10SM OVC015 13/11 A2996 RMK AO2
KRRT 201915Z AUTO 05013KT 10SM OVC015 13/11 A2998 RMK AO2
KRRT 201855Z AUTO 05012G15KT 10SM OVC015 13/11 A3000 RMK AO2
KRRT 201835Z AUTO 05011KT 10SM OVC013 12/11 A3000 RMK AO2
KRRT 201815Z AUTO 06010G17KT 10SM OVC011 12/11 A3002 RMK AO2
KRRT 201755Z AUTO 05011KT 10SM OVC011 12/10 A3002 RMK AO2
KRRT 201735Z AUTO 06009KT 10SM OVC011 12/10 A3003 RMK AO2
KRRT 201715Z AUTO 05011G15KT 10SM OVC013 12/10 A3004 RMK AO2
KRRT 201655Z AUTO 05009G16KT 10SM OVC013 12/09 A3004 RMK AO2
KRRT 201635Z AUTO 04009KT 10SM OVC013 12/10 A3005 RMK AO2
KRRT 201615Z AUTO 05012KT 10SM OVC013 12/10 A3006 RMK AO2
KRRT 201555Z AUTO 05012G16KT 10SM OVC013 12/09 A3007 RMK AO2
KRRT 201535Z AUTO 04010KT 10SM BKN013 12/09 A3008 RMK AO2
KRRT 201515Z AUTO 04010G14KT 10SM BKN015 12/09 A3008 RMK AO2
KRRT 201455Z AUTO 06010G15KT 10SM BKN015 12/09 A3009 RMK AO2
KRRT 201435Z AUTO 06010KT 10SM BKN015 11/09 A3010 RMK AO2
KRRT 201416Z AUTO 06010G14KT 10SM SCT015 11/09 A3011 RMK AO2
KRRT 201415Z AUTO 05011G14KT 10SM SCT015 11/09 A3011 RMK AO2
KRRT 201355Z AUTO 06010KT 10SM BKN015 BKN033 12/09 A3012 RMK AO2
KRRT 201335Z AUTO 05009KT 10SM SCT015 BKN033 11/09 A3012 RMK AO2
KRRT 201315Z AUTO 07010G14KT 10SM SCT015 11/09 A3013 RMK AO2
KRRT 201255Z AUTO 06010KT 10SM BKN017 11/09 A3013 RMK AO2
KRRT 201235Z AUTO 07011KT 10SM OVC019 11/09 A3013 RMK AO2
KRRT 201215Z AUTO 07010KT 10SM BKN019 11/09 A3012 RMK AO2
KRRT 201155Z AUTO 06011KT 10SM BKN019 11/09 A3012 RMK AO2
KRRT 201135Z AUTO 05009KT 10SM BKN019 11/09 A3012 RMK AO2
KRRT 201115Z AUTO 06008KT 10SM SCT019 11/09 A3013 RMK AO2
KRRT 201055Z AUTO 08010KT 10SM SCT025 11/08 A3014 RMK AO2
KRRT 201035Z AUTO 08008KT 10SM SCT021 BKN027 11/08 A3014 RMK AO2
KRRT 201015Z AUTO 08008KT 10SM BKN021 BKN028 11/09 A3015 RMK AO2
KRRT 200955Z AUTO 07009KT 10SM SCT021 11/09 A3014 RMK AO2
KRRT 200935Z AUTO 05009G16KT 10SM SCT023 11/08 A3013 RMK AO2
KRRT 200915Z AUTO 06010KT 10SM SCT023 11/08 A3014 RMK AO2
KRRT 200855Z AUTO 07011KT 10SM SCT025 11/08 A3015 RMK AO2
KRRT 200835Z AUTO 06011KT 10SM CLR 11/07 A3015 RMK AO2
KRRT 200815Z AUTO 06009KT 10SM CLR 11/07 A3014 RMK AO2
KRRT 200755Z AUTO 06012KT 10SM CLR 11/07 A3013 RMK AO2
KRRT 200735Z AUTO 04006KT 10SM SCT028 08/06 A3014 RMK AO2
KRRT 200715Z AUTO 36006KT 10SM CLR 08/06 A3015 RMK AO2
KRRT 200655Z AUTO 35008KT 10SM CLR 08/06 A3016 RMK AO2
KRRT 200635Z AUTO 35006KT 10SM CLR 08/06 A3016 RMK AO2
KRRT 200615Z AUTO 35007KT 10SM CLR 08/06 A3016 RMK AO2
KRRT 200555Z AUTO 35007KT 10SM SCT110 08/06 A3016 RMK AO2
KRRT 200535Z AUTO 35008KT 10SM SCT110 08/06 A3016 RMK AO2
KRRT 200515Z AUTO 36006KT 10SM CLR 08/06 A3016 RMK AO2
KRRT 200456Z AUTO 36005KT 10SM CLR 08/06 A3017 RMK AO2
KRRT 200455Z AUTO 36006KT 10SM CLR 08/06 A3017 RMK AO2
KRRT 200435Z AUTO 35007KT 10SM CLR 08/06 A3017 RMK AO2
KRRT 200415Z AUTO 35007KT 10SM CLR 08/06 A3017 RMK AO2
KRRT 200356Z AUTO 35007KT 10SM CLR 08/06 A3018 RMK AO2
KRRT 200355Z AUTO 35007KT 10SM CLR 08/06 A3018 RMK AO2
KRRT 200335Z AUTO 36007KT 10SM CLR 09/07 A3017 RMK AO2